Tonder, Denmark
Current Conditions -  °F | °C
As of 3:20 PM on Sunday 25 Jan 2015 (Local Time) from EDXW Reporting Station
Scattered Clouds Scattered Clouds  
Wind Chill: 37°   Ceiling: Unl
Heat Index: 43°   Visibility: 6mi
Dew Point: 39°   Wind: 10mph
Humidity: 87%   Direction: 280°W
Pressure: 30.21"   Gusts: NA
Location:  54.93°N, 8.87°E
Report Text: EDXW 251420Z 28009KT 9999 FEW029 SCT037 06/04 Q1023 RMK ATIS LIM
Loading
Personal Weather Stations






























Interactive Weather Map New forecast layout! Learn more

10-Day Weather Forecast

Advertisements
Track Severe Weather on mobile